»·PEaware :: CARBN11 KLSV-KLSV

CARBN11 :: KLSV-KLSV

FLIGHT INFORMATION

Flight Status: Arrived
Operator: Unknown
More flights by this operator :: More flights under this callsign
Pilot: Anonymous 3903 (3903)
Aircraft: FAIRCHILD A-10 THUNDERBOLT 2
(A10)
More flights by this aircraft type
Origin: KLSV Nellis AFB
United States
Destination: KLSV Nellis AFB
United States
More flights between these airports :: More routes between these airports
Route: +VFR NE
File this flight plan on PilotEdge
Remarks:
Altitude:
(Current/Filed)
16,000ft
Speed:
(Current/Filed)
420kts
Departed: 03-Dec-18 07:24 PM
Arrived: 03-Dec-18 08:09 PM
Distance/Time
Traveled:
1nm/0:45
Distance/Time
To Go:
Arrived

Flight Plot

Page will automatically refresh every two minutes.

Flight plan parsing failed; only flown route is shown


Map Options




Map Legend


Flown Route
Filed Route
Departure Airport
Arrival Airport
Navaid (VOR, NDB)
Fix

Horizontal Profiles

Position Reports

Time Latitude Longitude Heading Altitude Ground
Speed
03-Dec-18 18:40 36.225718 -115.051703 129 1850ft 0kts
03-Dec-18 18:41 36.225718 -115.051703 129 1850ft 0kts
03-Dec-18 18:42 36.225718 -115.051703 129 1850ft 0kts
03-Dec-18 18:43 36.225718 -115.051703 129 1850ft 0kts
03-Dec-18 18:44 36.225718 -115.051703 129 1850ft 0kts
03-Dec-18 18:45 36.225718 -115.051702 130 1850ft 0kts
03-Dec-18 18:46 36.225712 -115.051695 130 1850ft 0kts
03-Dec-18 18:47 36.225712 -115.051694 129 1850ft 0kts
03-Dec-18 18:48 36.225712 -115.051694 129 1850ft 0kts
03-Dec-18 18:49 36.225712 -115.051694 129 1850ft 0kts
03-Dec-18 18:50 36.225712 -115.051694 129 1850ft 0kts
03-Dec-18 18:51 36.225712 -115.051694 129 1850ft 0kts
03-Dec-18 18:52 36.225712 -115.051694 129 1850ft 0kts
03-Dec-18 18:53 36.225712 -115.051694 129 1850ft 0kts
03-Dec-18 18:54 36.225712 -115.051694 129 1850ft 0kts
03-Dec-18 18:55 36.225712 -115.051694 130 1850ft 0kts
03-Dec-18 18:56 36.225712 -115.051694 130 1850ft 0kts
03-Dec-18 18:57 36.225712 -115.051694 130 1850ft 0kts
03-Dec-18 18:58 36.225712 -115.051694 130 1850ft 0kts
03-Dec-18 18:58 36.225712 -115.051694 130 1850ft 0kts
03-Dec-18 18:59 36.225711 -115.051693 130 1850ft 0kts
03-Dec-18 19:01 36.225710 -115.051692 131 1850ft 0kts
03-Dec-18 19:01 36.225710 -115.051692 131 1850ft 0kts
03-Dec-18 19:02 36.225710 -115.051692 131 1850ft 0kts
03-Dec-18 19:03 36.225710 -115.051692 131 1850ft 0kts
03-Dec-18 19:05 36.225710 -115.051692 131 1850ft 0kts
03-Dec-18 19:05 36.225710 -115.051692 131 1850ft 0kts
03-Dec-18 19:06 36.225710 -115.051692 131 1850ft 0kts
03-Dec-18 19:07 36.225710 -115.051692 131 1850ft 0kts
03-Dec-18 19:08 36.225710 -115.051692 131 1850ft 0kts
03-Dec-18 19:09 36.225710 -115.051692 131 1850ft 0kts
03-Dec-18 19:10 36.225710 -115.051692 132 1850ft 0kts
03-Dec-18 19:11 36.225710 -115.051692 132 1850ft 0kts
03-Dec-18 19:12 36.225710 -115.051692 132 1850ft 0kts
03-Dec-18 19:13 36.225710 -115.051692 132 1850ft 0kts
03-Dec-18 19:14 36.225710 -115.051692 132 1850ft 0kts
03-Dec-18 19:15 36.225710 -115.051692 132 1850ft 0kts
03-Dec-18 19:16 36.225710 -115.051692 132 1850ft 0kts
03-Dec-18 19:17 36.225710 -115.051692 132 1850ft 0kts
03-Dec-18 19:18 36.225710 -115.051692 132 1850ft 0kts
03-Dec-18 19:19 36.225202 -115.050963 115 1849ft 12kts
03-Dec-18 19:20 36.227170 -115.047973 130 1850ft 0kts
03-Dec-18 19:21 36.227086 -115.047559 77 1850ft 0kts
03-Dec-18 19:22 36.227206 -115.046068 39 1849ft 0kts
03-Dec-18 19:23 36.247468 -115.023520 42 2473ft 202kts
03-Dec-18 19:24 36.297289 -114.963872 42 4242ft 264kts
03-Dec-18 19:25 36.355593 -114.901608 37 5793ft 289kts
03-Dec-18 19:26 36.426615 -114.852261 24 7452ft 281kts
03-Dec-18 19:27 36.489995 -114.792369 47 8903ft 293kts
03-Dec-18 19:28 36.541645 -114.710194 51 9605ft 314kts
03-Dec-18 19:29 36.595409 -114.621467 51 9629ft 324kts
03-Dec-18 19:30 36.650313 -114.531502 51 9628ft 327kts
03-Dec-18 19:31 36.705206 -114.441084 51 9627ft 327kts
03-Dec-18 19:32 36.760241 -114.350394 51 9627ft 327kts
03-Dec-18 19:33 36.815162 -114.259646 51 9626ft 328kts
03-Dec-18 19:34 36.870801 -114.169312 49 9730ft 323kts
03-Dec-18 19:35 36.893508 -114.068704 113 9735ft 334kts
03-Dec-18 19:36 36.833700 -113.983974 152 9611ft 332kts
03-Dec-18 19:37 36.747828 -113.995691 234 9272ft 326kts
03-Dec-18 19:38 36.740816 -114.105408 293 9284ft 325kts
03-Dec-18 19:39 36.820933 -114.136177 358 9543ft 311kts
03-Dec-18 19:40 36.857162 -114.108974 209 6544ft 321kts
03-Dec-18 19:41 36.791182 -114.135512 120 4447ft 264kts
03-Dec-18 19:42 36.822334 -114.063522 27 3173ft 262kts
03-Dec-18 19:43 36.814686 -114.065303 349 2395ft 157kts
03-Dec-18 19:44 36.842346 -114.037537 145 2607ft 179kts
03-Dec-18 19:45 36.836089 -114.053837 27 2770ft 255kts
03-Dec-18 19:46 36.790470 -114.037473 217 5032ft 303kts
03-Dec-18 19:47 36.751489 -114.128689 242 6264ft 291kts
03-Dec-18 19:48 36.709168 -114.222210 236 6544ft 331kts
03-Dec-18 19:49 36.667876 -114.311207 235 6328ft 257kts
03-Dec-18 19:50 36.628304 -114.385150 232 5923ft 254kts
03-Dec-18 19:51 36.588637 -114.456832 232 5963ft 275kts
03-Dec-18 19:52 36.544181 -114.533064 231 6004ft 280kts
03-Dec-18 19:53 36.497035 -114.609990 230 5844ft 278kts
03-Dec-18 19:54 36.449557 -114.685680 231 5570ft 272kts
03-Dec-18 19:55 36.403175 -114.760700 232 5551ft 275kts
03-Dec-18 19:56 36.358440 -114.837884 233 5430ft 276kts
03-Dec-18 19:57 36.311996 -114.914145 231 4597ft 276kts
03-Dec-18 19:58 36.272061 -114.985118 233 2923ft 180kts
03-Dec-18 19:59 36.236745 -115.031419 219 1859ft 189kts
03-Dec-18 20:00 36.215988 -115.014300 42 2882ft 250kts
03-Dec-18 20:01 36.255432 -115.005719 258 2348ft 165kts
03-Dec-18 20:02 36.220169 -115.047148 179 2449ft 209kts
03-Dec-18 20:03 36.236417 -114.993647 36 2862ft 202kts
03-Dec-18 20:04 36.246886 -115.020293 220 1938ft 127kts
03-Dec-18 20:05 36.209025 -115.040498 104 2951ft 242kts
03-Dec-18 20:06 36.246755 -114.991538 342 2846ft 194kts
03-Dec-18 20:07 36.237895 -115.030132 219 1853ft 112kts
03-Dec-18 20:08 36.225999 -115.045381 309 1849ft 27kts

Navigation Log

Ident Type
Flight plan parsing failed, navigation log unavailable